sensor_id;sensor_type;location;lat;lon;timestamp;P1;durP1;ratioP1;P2;durP2;ratioP2
60169;SDS011;46042;49.444;6.862;2022-12-04T00:01:08;33.70;;;13.53;;
60169;SDS011;46042;49.444;6.862;2022-12-04T00:03:37;27.77;;;13.07;;
60169;SDS011;46042;49.444;6.862;2022-12-04T00:06:05;28.90;;;11.67;;
60169;SDS011;46042;49.444;6.862;2022-12-04T00:08:34;29.83;;;12.20;;
60169;SDS011;46042;49.444;6.862;2022-12-04T00:11:05;27.03;;;12.40;;
60169;SDS011;46042;49.444;6.862;2022-12-04T00:13:33;28.10;;;12.27;;
60169;SDS011;46042;49.444;6.862;2022-12-04T00:16:00;32.63;;;12.23;;
60169;SDS011;46042;49.444;6.862;2022-12-04T00:18:30;29.07;;;12.90;;
60169;SDS011;46042;49.444;6.862;2022-12-04T00:20:56;31.77;;;13.00;;
60169;SDS011;46042;49.444;6.862;2022-12-04T00:23:23;34.10;;;12.53;;
60169;SDS011;46042;49.444;6.862;2022-12-04T00:25:50;34.43;;;14.10;;
60169;SDS011;46042;49.444;6.862;2022-12-04T00:28:18;25.93;;;12.30;;
60169;SDS011;46042;49.444;6.862;2022-12-04T00:30:45;27.10;;;12.10;;
60169;SDS011;46042;49.444;6.862;2022-12-04T00:33:12;33.27;;;14.47;;
60169;SDS011;46042;49.444;6.862;2022-12-04T00:35:39;32.60;;;12.10;;
60169;SDS011;46042;49.444;6.862;2022-12-04T00:38:06;31.70;;;14.20;;
60169;SDS011;46042;49.444;6.862;2022-12-04T00:40:32;32.27;;;13.37;;
60169;SDS011;46042;49.444;6.862;2022-12-04T00:42:59;29.80;;;12.77;;
60169;SDS011;46042;49.444;6.862;2022-12-04T00:45:26;28.10;;;13.27;;
60169;SDS011;46042;49.444;6.862;2022-12-04T00:47:53;31.80;;;12.23;;
60169;SDS011;46042;49.444;6.862;2022-12-04T00:50:19;30.17;;;13.00;;
60169;SDS011;46042;49.444;6.862;2022-12-04T00:52:46;30.37;;;14.03;;
60169;SDS011;46042;49.444;6.862;2022-12-04T00:55:13;27.93;;;13.23;;
60169;SDS011;46042;49.444;6.862;2022-12-04T00:57:40;25.33;;;12.30;;
60169;SDS011;46042;49.444;6.862;2022-12-04T01:00:07;36.87;;;14.33;;
60169;SDS011;46042;49.444;6.862;2022-12-04T01:02:34;27.63;;;13.33;;
60169;SDS011;46042;49.444;6.862;2022-12-04T01:05:00;35.77;;;15.33;;
60169;SDS011;46042;49.444;6.862;2022-12-04T01:07:27;37.57;;;14.90;;
60169;SDS011;46042;49.444;6.862;2022-12-04T01:09:54;33.80;;;13.60;;
60169;SDS011;46042;49.444;6.862;2022-12-04T01:12:21;27.37;;;13.97;;
60169;SDS011;46042;49.444;6.862;2022-12-04T01:14:48;32.63;;;14.00;;
60169;SDS011;46042;49.444;6.862;2022-12-04T01:17:15;30.63;;;12.80;;
60169;SDS011;46042;49.444;6.862;2022-12-04T01:19:42;31.20;;;12.20;;
60169;SDS011;46042;49.444;6.862;2022-12-04T01:22:08;33.70;;;14.27;;
60169;SDS011;46042;49.444;6.862;2022-12-04T01:24:35;47.13;;;18.13;;
60169;SDS011;46042;49.444;6.862;2022-12-04T01:27:02;24.70;;;12.90;;
60169;SDS011;46042;49.444;6.862;2022-12-04T01:29:28;37.30;;;15.77;;
60169;SDS011;46042;49.444;6.862;2022-12-04T01:31:55;39.67;;;16.00;;
60169;SDS011;46042;49.444;6.862;2022-12-04T01:34:22;32.87;;;13.97;;
60169;SDS011;46042;49.444;6.862;2022-12-04T01:36:50;33.37;;;13.93;;
60169;SDS011;46042;49.444;6.862;2022-12-04T01:39:17;41.60;;;16.07;;
60169;SDS011;46042;49.444;6.862;2022-12-04T01:41:44;34.70;;;15.43;;
60169;SDS011;46042;49.444;6.862;2022-12-04T01:46:40;36.40;;;14.97;;
60169;SDS011;46042;49.444;6.862;2022-12-04T01:49:13;31.20;;;13.90;;
60169;SDS011;46042;49.444;6.862;2022-12-04T01:51:45;31.03;;;14.50;;
60169;SDS011;46042;49.444;6.862;2022-12-04T01:54:49;38.90;;;13.90;;
60169;SDS011;46042;49.444;6.862;2022-12-04T01:57:14;29.73;;;12.47;;
60169;SDS011;46042;49.444;6.862;2022-12-04T01:59:44;32.50;;;14.07;;
60169;SDS011;46042;49.444;6.862;2022-12-04T02:02:16;29.03;;;13.90;;
60169;SDS011;46042;49.444;6.862;2022-12-04T02:04:48;30.90;;;12.37;;
60169;SDS011;46042;49.444;6.862;2022-12-04T02:07:15;40.00;;;16.60;;
60169;SDS011;46042;49.444;6.862;2022-12-04T02:09:42;33.73;;;13.83;;
60169;SDS011;46042;49.444;6.862;2022-12-04T02:15:21;28.70;;;13.73;;
60169;SDS011;46042;49.444;6.862;2022-12-04T02:18:10;34.10;;;13.20;;
60169;SDS011;46042;49.444;6.862;2022-12-04T02:32:06;24.90;;;11.67;;
60169;SDS011;46042;49.444;6.862;2022-12-04T02:34:42;34.30;;;13.67;;
60169;SDS011;46042;49.444;6.862;2022-12-04T02:37:20;37.77;;;14.47;;
60169;SDS011;46042;49.444;6.862;2022-12-04T02:42:40;22.27;;;10.00;;
60169;SDS011;46042;49.444;6.862;2022-12-04T02:45:11;25.67;;;11.23;;
60169;SDS011;46042;49.444;6.862;2022-12-04T02:50:14;23.93;;;11.03;;
60169;SDS011;46042;49.444;6.862;2022-12-04T02:52:49;28.00;;;13.17;;
60169;SDS011;46042;49.444;6.862;2022-12-04T02:56:04;25.93;;;11.47;;
60169;SDS011;46042;49.444;6.862;2022-12-04T02:58:24;29.97;;;13.43;;
60169;SDS011;46042;49.444;6.862;2022-12-04T03:01:13;21.77;;;12.00;;
60169;SDS011;46042;49.444;6.862;2022-12-04T03:06:44;24.07;;;11.87;;
60169;SDS011;46042;49.444;6.862;2022-12-04T03:09:26;26.27;;;10.57;;
60169;SDS011;46042;49.444;6.862;2022-12-04T03:12:06;22.90;;;11.43;;
60169;SDS011;46042;49.444;6.862;2022-12-04T03:14:40;22.63;;;10.83;;
60169;SDS011;46042;49.444;6.862;2022-12-04T03:17:14;28.88;;;12.10;;
60169;SDS011;46042;49.444;6.862;2022-12-04T03:19:49;26.33;;;10.97;;
60169;SDS011;46042;49.444;6.862;2022-12-04T03:22:22;27.03;;;14.07;;
60169;SDS011;46042;49.444;6.862;2022-12-04T03:24:51;26.43;;;12.37;;
60169;SDS011;46042;49.444;6.862;2022-12-04T03:30:20;28.93;;;11.73;;
60169;SDS011;46042;49.444;6.862;2022-12-04T03:35:23;28.13;;;12.00;;
60169;SDS011;46042;49.444;6.862;2022-12-04T03:38:20;32.07;;;13.87;;
60169;SDS011;46042;49.444;6.862;2022-12-04T03:41:17;27.37;;;12.27;;
60169;SDS011;46042;49.444;6.862;2022-12-04T03:44:07;23.40;;;11.43;;
60169;SDS011;46042;49.444;6.862;2022-12-04T03:49:55;23.50;;;11.93;;
60169;SDS011;46042;49.444;6.862;2022-12-04T03:57:51;25.27;;;12.70;;
60169;SDS011;46042;49.444;6.862;2022-12-04T04:00:22;23.73;;;11.65;;
60169;SDS011;46042;49.444;6.862;2022-12-04T04:02:51;22.73;;;11.40;;
60169;SDS011;46042;49.444;6.862;2022-12-04T04:05:23;26.23;;;11.70;;
60169;SDS011;46042;49.444;6.862;2022-12-04T04:07:56;30.73;;;13.88;;
60169;SDS011;46042;49.444;6.862;2022-12-04T04:10:47;37.57;;;14.67;;
60169;SDS011;46042;49.444;6.862;2022-12-04T04:13:17;26.10;;;13.43;;
60169;SDS011;46042;49.444;6.862;2022-12-04T04:16:08;27.60;;;13.10;;
60169;SDS011;46042;49.444;6.862;2022-12-04T04:18:58;28.93;;;13.83;;
60169;SDS011;46042;49.444;6.862;2022-12-04T04:21:46;33.47;;;13.10;;
60169;SDS011;46042;49.444;6.862;2022-12-04T04:24:42;26.80;;;11.17;;
60169;SDS011;46042;49.444;6.862;2022-12-04T04:27:12;27.47;;;13.00;;
60169;SDS011;46042;49.444;6.862;2022-12-04T04:29:39;24.33;;;11.73;;
60169;SDS011;46042;49.444;6.862;2022-12-04T04:37:36;24.90;;;11.33;;
60169;SDS011;46042;49.444;6.862;2022-12-04T04:40:19;29.20;;;13.03;;
60169;SDS011;46042;49.444;6.862;2022-12-04T04:42:59;26.37;;;12.70;;
60169;SDS011;46042;49.444;6.862;2022-12-04T04:45:58;24.33;;;12.73;;
60169;SDS011;46042;49.444;6.862;2022-12-04T04:48:31;25.90;;;11.03;;
60169;SDS011;46042;49.444;6.862;2022-12-04T04:51:02;25.23;;;12.02;;
60169;SDS011;46042;49.444;6.862;2022-12-04T04:53:34;25.80;;;13.77;;
60169;SDS011;46042;49.444;6.862;2022-12-04T04:56:04;23.23;;;11.93;;
60169;SDS011;46042;49.444;6.862;2022-12-04T04:58:32;29.73;;;12.60;;
60169;SDS011;46042;49.444;6.862;2022-12-04T05:01:03;22.97;;;11.87;;
60169;SDS011;46042;49.444;6.862;2022-12-04T05:03:34;29.17;;;12.03;;
60169;SDS011;46042;49.444;6.862;2022-12-04T05:06:01;28.40;;;13.13;;
60169;SDS011;46042;49.444;6.862;2022-12-04T05:08:27;23.53;;;10.63;;
60169;SDS011;46042;49.444;6.862;2022-12-04T05:10:54;23.50;;;11.10;;
60169;SDS011;46042;49.444;6.862;2022-12-04T05:13:21;27.63;;;12.67;;
60169;SDS011;46042;49.444;6.862;2022-12-04T05:18:24;24.43;;;10.80;;
60169;SDS011;46042;49.444;6.862;2022-12-04T05:20:51;28.27;;;12.17;;
60169;SDS011;46042;49.444;6.862;2022-12-04T05:23:18;23.90;;;11.90;;
60169;SDS011;46042;49.444;6.862;2022-12-04T05:25:45;27.03;;;13.23;;
60169;SDS011;46042;49.444;6.862;2022-12-04T05:28:11;21.17;;;11.00;;
60169;SDS011;46042;49.444;6.862;2022-12-04T05:30:38;25.83;;;13.77;;
60169;SDS011;46042;49.444;6.862;2022-12-04T05:33:05;23.43;;;11.47;;
60169;SDS011;46042;49.444;6.862;2022-12-04T05:35:31;26.40;;;11.97;;
60169;SDS011;46042;49.444;6.862;2022-12-04T05:37:58;24.10;;;11.87;;
60169;SDS011;46042;49.444;6.862;2022-12-04T05:40:25;26.17;;;11.47;;
60169;SDS011;46042;49.444;6.862;2022-12-04T05:42:51;29.27;;;13.03;;
60169;SDS011;46042;49.444;6.862;2022-12-04T05:45:18;24.40;;;12.43;;
60169;SDS011;46042;49.444;6.862;2022-12-04T05:47:44;24.13;;;11.10;;
60169;SDS011;46042;49.444;6.862;2022-12-04T05:50:11;24.77;;;12.27;;
60169;SDS011;46042;49.444;6.862;2022-12-04T05:52:39;26.47;;;11.47;;
60169;SDS011;46042;49.444;6.862;2022-12-04T05:55:05;23.37;;;13.20;;
60169;SDS011;46042;49.444;6.862;2022-12-04T05:57:32;35.10;;;13.83;;
60169;SDS011;46042;49.444;6.862;2022-12-04T05:59:59;24.03;;;12.67;;
60169;SDS011;46042;49.444;6.862;2022-12-04T06:02:25;26.13;;;13.27;;
60169;SDS011;46042;49.444;6.862;2022-12-04T06:04:52;29.87;;;13.20;;
60169;SDS011;46042;49.444;6.862;2022-12-04T06:07:18;30.53;;;13.10;;
60169;SDS011;46042;49.444;6.862;2022-12-04T06:09:45;26.50;;;11.27;;
60169;SDS011;46042;49.444;6.862;2022-12-04T06:12:12;27.63;;;13.27;;
60169;SDS011;46042;49.444;6.862;2022-12-04T06:14:38;34.70;;;12.93;;
60169;SDS011;46042;49.444;6.862;2022-12-04T06:17:05;24.77;;;11.23;;
60169;SDS011;46042;49.444;6.862;2022-12-04T06:19:31;34.53;;;13.20;;
60169;SDS011;46042;49.444;6.862;2022-12-04T06:21:58;33.57;;;13.80;;
60169;SDS011;46042;49.444;6.862;2022-12-04T06:24:25;29.10;;;12.83;;
60169;SDS011;46042;49.444;6.862;2022-12-04T06:26:58;30.63;;;14.37;;
60169;SDS011;46042;49.444;6.862;2022-12-04T06:29:45;32.00;;;13.57;;
60169;SDS011;46042;49.444;6.862;2022-12-04T06:32:11;28.13;;;12.20;;
60169;SDS011;46042;49.444;6.862;2022-12-04T06:34:48;24.60;;;11.77;;
60169;SDS011;46042;49.444;6.862;2022-12-04T06:37:16;32.33;;;12.15;;
60169;SDS011;46042;49.444;6.862;2022-12-04T06:39:43;34.20;;;11.97;;
60169;SDS011;46042;49.444;6.862;2022-12-04T06:42:10;27.17;;;12.03;;
60169;SDS011;46042;49.444;6.862;2022-12-04T06:44:37;25.90;;;12.07;;
60169;SDS011;46042;49.444;6.862;2022-12-04T06:47:03;31.40;;;13.27;;
60169;SDS011;46042;49.444;6.862;2022-12-04T06:49:30;35.30;;;16.07;;
60169;SDS011;46042;49.444;6.862;2022-12-04T06:51:57;27.23;;;11.63;;
60169;SDS011;46042;49.444;6.862;2022-12-04T06:54:23;31.50;;;13.73;;
60169;SDS011;46042;49.444;6.862;2022-12-04T06:56:51;34.27;;;12.67;;
60169;SDS011;46042;49.444;6.862;2022-12-04T06:59:17;25.43;;;12.37;;
60169;SDS011;46042;49.444;6.862;2022-12-04T07:01:44;26.43;;;11.67;;
60169;SDS011;46042;49.444;6.862;2022-12-04T07:04:10;25.83;;;12.60;;
60169;SDS011;46042;49.444;6.862;2022-12-04T07:06:37;26.97;;;13.57;;
60169;SDS011;46042;49.444;6.862;2022-12-04T07:11:33;22.60;;;11.43;;
60169;SDS011;46042;49.444;6.862;2022-12-04T07:14:00;26.90;;;11.10;;
60169;SDS011;46042;49.444;6.862;2022-12-04T07:16:27;21.13;;;9.97;;
60169;SDS011;46042;49.444;6.862;2022-12-04T07:18:56;20.07;;;10.67;;
60169;SDS011;46042;49.444;6.862;2022-12-04T07:21:24;24.67;;;10.93;;
60169;SDS011;46042;49.444;6.862;2022-12-04T07:23:54;26.73;;;12.43;;
60169;SDS011;46042;49.444;6.862;2022-12-04T07:26:22;21.83;;;11.07;;
60169;SDS011;46042;49.444;6.862;2022-12-04T07:28:49;23.63;;;11.67;;
60169;SDS011;46042;49.444;6.862;2022-12-04T07:31:17;29.43;;;12.07;;
60169;SDS011;46042;49.444;6.862;2022-12-04T07:33:45;22.97;;;10.97;;
60169;SDS011;46042;49.444;6.862;2022-12-04T07:36:14;26.43;;;12.17;;
60169;SDS011;46042;49.444;6.862;2022-12-04T07:38:42;27.57;;;13.07;;
60169;SDS011;46042;49.444;6.862;2022-12-04T07:41:09;27.57;;;11.43;;
60169;SDS011;46042;49.444;6.862;2022-12-04T07:43:37;23.37;;;11.67;;
60169;SDS011;46042;49.444;6.862;2022-12-04T07:46:10;27.20;;;12.37;;
60169;SDS011;46042;49.444;6.862;2022-12-04T07:48:39;37.47;;;12.70;;
60169;SDS011;46042;49.444;6.862;2022-12-04T07:51:13;27.27;;;12.57;;
60169;SDS011;46042;49.444;6.862;2022-12-04T07:53:41;23.13;;;11.77;;
60169;SDS011;46042;49.444;6.862;2022-12-04T07:56:09;23.27;;;11.93;;
60169;SDS011;46042;49.444;6.862;2022-12-04T07:58:36;22.93;;;10.90;;
60169;SDS011;46042;49.444;6.862;2022-12-04T08:01:11;22.73;;;12.90;;
60169;SDS011;46042;49.444;6.862;2022-12-04T08:03:40;25.83;;;11.83;;
60169;SDS011;46042;49.444;6.862;2022-12-04T08:06:14;21.17;;;10.73;;
60169;SDS011;46042;49.444;6.862;2022-12-04T08:08:41;27.20;;;12.17;;
60169;SDS011;46042;49.444;6.862;2022-12-04T08:11:10;24.43;;;12.67;;
60169;SDS011;46042;49.444;6.862;2022-12-04T08:13:38;24.83;;;11.60;;
60169;SDS011;46042;49.444;6.862;2022-12-04T08:16:06;24.83;;;12.30;;
60169;SDS011;46042;49.444;6.862;2022-12-04T08:18:34;26.60;;;11.47;;
60169;SDS011;46042;49.444;6.862;2022-12-04T08:21:12;22.93;;;10.33;;
60169;SDS011;46042;49.444;6.862;2022-12-04T08:23:41;30.00;;;12.73;;
60169;SDS011;46042;49.444;6.862;2022-12-04T08:26:09;29.53;;;13.80;;
60169;SDS011;46042;49.444;6.862;2022-12-04T08:28:36;24.30;;;11.37;;
60169;SDS011;46042;49.444;6.862;2022-12-04T08:31:04;29.63;;;12.13;;
60169;SDS011;46042;49.444;6.862;2022-12-04T08:33:36;22.33;;;12.20;;
60169;SDS011;46042;49.444;6.862;2022-12-04T08:36:07;20.97;;;12.07;;
60169;SDS011;46042;49.444;6.862;2022-12-04T08:38:36;28.77;;;13.73;;
60169;SDS011;46042;49.444;6.862;2022-12-04T08:41:04;21.30;;;10.20;;
60169;SDS011;46042;49.444;6.862;2022-12-04T08:43:32;27.50;;;11.20;;
60169;SDS011;46042;49.444;6.862;2022-12-04T08:46:00;27.43;;;12.63;;
60169;SDS011;46042;49.444;6.862;2022-12-04T08:48:30;24.48;;;10.60;;
60169;SDS011;46042;49.444;6.862;2022-12-04T08:50:57;20.20;;;10.73;;
60169;SDS011;46042;49.444;6.862;2022-12-04T08:53:24;28.77;;;11.53;;
60169;SDS011;46042;49.444;6.862;2022-12-04T08:55:51;27.00;;;11.43;;
60169;SDS011;46042;49.444;6.862;2022-12-04T08:58:18;22.27;;;10.33;;
60169;SDS011;46042;49.444;6.862;2022-12-04T09:00:45;25.43;;;11.00;;
60169;SDS011;46042;49.444;6.862;2022-12-04T09:03:13;24.73;;;11.67;;
60169;SDS011;46042;49.444;6.862;2022-12-04T09:05:42;26.93;;;10.73;;
60169;SDS011;46042;49.444;6.862;2022-12-04T09:08:11;19.97;;;10.27;;
60169;SDS011;46042;49.444;6.862;2022-12-04T09:10:38;28.80;;;11.93;;
60169;SDS011;46042;49.444;6.862;2022-12-04T09:13:05;25.30;;;11.03;;
60169;SDS011;46042;49.444;6.862;2022-12-04T09:15:32;25.37;;;10.97;;
60169;SDS011;46042;49.444;6.862;2022-12-04T09:17:59;25.03;;;10.83;;
60169;SDS011;46042;49.444;6.862;2022-12-04T09:20:26;23.83;;;10.60;;
60169;SDS011;46042;49.444;6.862;2022-12-04T09:22:52;18.83;;;9.03;;
60169;SDS011;46042;49.444;6.862;2022-12-04T09:25:30;25.60;;;10.47;;
60169;SDS011;46042;49.444;6.862;2022-12-04T09:27:57;20.77;;;9.00;;
60169;SDS011;46042;49.444;6.862;2022-12-04T09:30:23;25.17;;;10.23;;
60169;SDS011;46042;49.444;6.862;2022-12-04T09:32:50;29.00;;;12.37;;
60169;SDS011;46042;49.444;6.862;2022-12-04T09:35:17;23.10;;;11.80;;
60169;SDS011;46042;49.444;6.862;2022-12-04T09:37:44;31.93;;;11.73;;
60169;SDS011;46042;49.444;6.862;2022-12-04T09:40:14;28.83;;;11.10;;
60169;SDS011;46042;49.444;6.862;2022-12-04T09:45:47;26.40;;;11.53;;
60169;SDS011;46042;49.444;6.862;2022-12-04T09:48:18;21.47;;;9.93;;
60169;SDS011;46042;49.444;6.862;2022-12-04T09:50:47;23.67;;;11.37;;
60169;SDS011;46042;49.444;6.862;2022-12-04T09:53:17;21.93;;;9.80;;
60169;SDS011;46042;49.444;6.862;2022-12-04T09:55:54;24.07;;;10.77;;
60169;SDS011;46042;49.444;6.862;2022-12-04T09:58:29;22.43;;;10.17;;
60169;SDS011;46042;49.444;6.862;2022-12-04T10:01:05;24.30;;;10.57;;
60169;SDS011;46042;49.444;6.862;2022-12-04T10:03:40;27.33;;;10.37;;
60169;SDS011;46042;49.444;6.862;2022-12-04T10:06:10;24.43;;;10.77;;
60169;SDS011;46042;49.444;6.862;2022-12-04T10:08:43;27.87;;;10.60;;
60169;SDS011;46042;49.444;6.862;2022-12-04T10:11:29;26.33;;;11.73;;
60169;SDS011;46042;49.444;6.862;2022-12-04T10:17:35;19.98;;;10.48;;
60169;SDS011;46042;49.444;6.862;2022-12-04T10:20:16;17.87;;;8.40;;
60169;SDS011;46042;49.444;6.862;2022-12-04T10:25:41;16.03;;;8.60;;
60169;SDS011;46042;49.444;6.862;2022-12-04T10:28:27;28.57;;;8.73;;
60169;SDS011;46042;49.444;6.862;2022-12-04T10:30:59;19.00;;;8.63;;
60169;SDS011;46042;49.444;6.862;2022-12-04T10:36:22;17.83;;;8.33;;
60169;SDS011;46042;49.444;6.862;2022-12-04T10:39:05;24.20;;;11.20;;
60169;SDS011;46042;49.444;6.862;2022-12-04T10:41:41;19.40;;;8.50;;
60169;SDS011;46042;49.444;6.862;2022-12-04T10:44:26;23.57;;;9.33;;
60169;SDS011;46042;49.444;6.862;2022-12-04T10:46:58;16.80;;;8.40;;
60169;SDS011;46042;49.444;6.862;2022-12-04T10:49:28;16.77;;;8.00;;
60169;SDS011;46042;49.444;6.862;2022-12-04T10:51:59;18.60;;;8.93;;
60169;SDS011;46042;49.444;6.862;2022-12-04T10:57:32;22.20;;;8.43;;
60169;SDS011;46042;49.444;6.862;2022-12-04T11:00:03;20.03;;;9.53;;
60169;SDS011;46042;49.444;6.862;2022-12-04T11:02:50;19.37;;;6.97;;
60169;SDS011;46042;49.444;6.862;2022-12-04T11:05:26;20.70;;;7.87;;
60169;SDS011;46042;49.444;6.862;2022-12-04T11:08:05;21.87;;;10.23;;
60169;SDS011;46042;49.444;6.862;2022-12-04T11:10:45;27.10;;;11.70;;
60169;SDS011;46042;49.444;6.862;2022-12-04T11:13:28;16.97;;;8.33;;
60169;SDS011;46042;49.444;6.862;2022-12-04T11:15:57;22.40;;;9.67;;
60169;SDS011;46042;49.444;6.862;2022-12-04T11:21:23;20.40;;;10.33;;
60169;SDS011;46042;49.444;6.862;2022-12-04T11:23:54;21.50;;;8.10;;
60169;SDS011;46042;49.444;6.862;2022-12-04T11:26:33;13.73;;;7.17;;
60169;SDS011;46042;49.444;6.862;2022-12-04T11:29:11;18.00;;;8.10;;
60169;SDS011;46042;49.444;6.862;2022-12-04T11:32:02;23.87;;;9.20;;
60169;SDS011;46042;49.444;6.862;2022-12-04T11:34:38;15.90;;;7.47;;
60169;SDS011;46042;49.444;6.862;2022-12-04T11:37:16;20.60;;;7.77;;
60169;SDS011;46042;49.444;6.862;2022-12-04T11:39:50;22.07;;;8.57;;
60169;SDS011;46042;49.444;6.862;2022-12-04T11:42:24;17.67;;;9.13;;
60169;SDS011;46042;49.444;6.862;2022-12-04T11:44:56;16.87;;;7.67;;
60169;SDS011;46042;49.444;6.862;2022-12-04T11:47:31;21.67;;;7.87;;
60169;SDS011;46042;49.444;6.862;2022-12-04T11:50:00;16.67;;;8.03;;
60169;SDS011;46042;49.444;6.862;2022-12-04T11:55:55;22.13;;;8.33;;
60169;SDS011;46042;49.444;6.862;2022-12-04T12:04:42;25.67;;;10.03;;
60169;SDS011;46042;49.444;6.862;2022-12-04T12:16:07;19.80;;;9.43;;
60169;SDS011;46042;49.444;6.862;2022-12-04T12:24:21;25.30;;;9.27;;
60169;SDS011;46042;49.444;6.862;2022-12-04T12:32:49;17.80;;;7.53;;
60169;SDS011;46042;49.444;6.862;2022-12-04T12:35:26;17.93;;;7.97;;
60169;SDS011;46042;49.444;6.862;2022-12-04T12:38:17;16.07;;;8.00;;
60169;SDS011;46042;49.444;6.862;2022-12-04T12:41:01;18.53;;;8.03;;
60169;SDS011;46042;49.444;6.862;2022-12-04T12:43:43;14.97;;;7.10;;
60169;SDS011;46042;49.444;6.862;2022-12-04T12:49:08;20.80;;;9.23;;
60169;SDS011;46042;49.444;6.862;2022-12-04T12:52:03;19.58;;;9.38;;
60169;SDS011;46042;49.444;6.862;2022-12-04T12:57:28;20.53;;;7.23;;
60169;SDS011;46042;49.444;6.862;2022-12-04T13:00:20;22.97;;;9.60;;
60169;SDS011;46042;49.444;6.862;2022-12-04T13:02:59;17.30;;;7.87;;
60169;SDS011;46042;49.444;6.862;2022-12-04T13:05:39;19.57;;;8.10;;
60169;SDS011;46042;49.444;6.862;2022-12-04T13:08:15;22.03;;;8.43;;
60169;SDS011;46042;49.444;6.862;2022-12-04T13:11:13;19.27;;;9.17;;
60169;SDS011;46042;49.444;6.862;2022-12-04T13:14:09;24.10;;;11.43;;
60169;SDS011;46042;49.444;6.862;2022-12-04T13:16:38;18.63;;;8.77;;
60169;SDS011;46042;49.444;6.862;2022-12-04T13:22:37;16.57;;;9.37;;
60169;SDS011;46042;49.444;6.862;2022-12-04T13:28:15;18.77;;;8.23;;
60169;SDS011;46042;49.444;6.862;2022-12-04T13:31:13;22.70;;;10.40;;
60169;SDS011;46042;49.444;6.862;2022-12-04T13:36:48;21.80;;;9.40;;
60169;SDS011;46042;49.444;6.862;2022-12-04T13:42:49;26.13;;;9.50;;
60169;SDS011;46042;49.444;6.862;2022-12-04T13:45:25;19.00;;;7.53;;
60169;SDS011;46042;49.444;6.862;2022-12-04T13:47:55;18.13;;;7.27;;
60169;SDS011;46042;49.444;6.862;2022-12-04T13:50:31;15.03;;;6.57;;
60169;SDS011;46042;49.444;6.862;2022-12-04T13:53:05;16.93;;;8.30;;
60169;SDS011;46042;49.444;6.862;2022-12-04T13:55:59;16.77;;;7.97;;
60169;SDS011;46042;49.444;6.862;2022-12-04T13:58:35;20.30;;;9.10;;
60169;SDS011;46042;49.444;6.862;2022-12-04T14:01:05;21.60;;;7.80;;
60169;SDS011;46042;49.444;6.862;2022-12-04T14:03:50;20.63;;;7.40;;
60169;SDS011;46042;49.444;6.862;2022-12-04T14:06:41;19.23;;;8.40;;
60169;SDS011;46042;49.444;6.862;2022-12-04T14:09:18;11.57;;;6.17;;
60169;SDS011;46042;49.444;6.862;2022-12-04T14:11:53;20.07;;;7.50;;
60169;SDS011;46042;49.444;6.862;2022-12-04T14:14:33;20.57;;;8.40;;
60169;SDS011;46042;49.444;6.862;2022-12-04T14:17:05;17.23;;;8.07;;
60169;SDS011;46042;49.444;6.862;2022-12-04T14:19:53;19.93;;;8.00;;
60169;SDS011;46042;49.444;6.862;2022-12-04T14:35:57;23.37;;;9.47;;
60169;SDS011;46042;49.444;6.862;2022-12-04T14:38:27;13.70;;;7.07;;
60169;SDS011;46042;49.444;6.862;2022-12-04T14:40:54;18.33;;;7.47;;
60169;SDS011;46042;49.444;6.862;2022-12-04T14:43:24;15.83;;;7.27;;
60169;SDS011;46042;49.444;6.862;2022-12-04T14:45:55;18.08;;;7.80;;
60169;SDS011;46042;49.444;6.862;2022-12-04T14:59:21;21.33;;;8.67;;
60169;SDS011;46042;49.444;6.862;2022-12-04T15:01:54;22.37;;;8.13;;
60169;SDS011;46042;49.444;6.862;2022-12-04T15:04:25;21.53;;;7.40;;
60169;SDS011;46042;49.444;6.862;2022-12-04T15:06:56;15.27;;;6.93;;
60169;SDS011;46042;49.444;6.862;2022-12-04T15:09:26;17.50;;;7.70;;
60169;SDS011;46042;49.444;6.862;2022-12-04T15:12:14;12.07;;;6.00;;
60169;SDS011;46042;49.444;6.862;2022-12-04T15:15:19;18.30;;;6.67;;
60169;SDS011;46042;49.444;6.862;2022-12-04T15:17:54;11.70;;;4.93;;
60169;SDS011;46042;49.444;6.862;2022-12-04T15:23:18;15.67;;;6.97;;
60169;SDS011;46042;49.444;6.862;2022-12-04T15:25:52;15.60;;;6.43;;
60169;SDS011;46042;49.444;6.862;2022-12-04T15:28:24;14.60;;;6.17;;
60169;SDS011;46042;49.444;6.862;2022-12-04T15:30:54;11.83;;;5.63;;
60169;SDS011;46042;49.444;6.862;2022-12-04T15:33:24;16.20;;;7.07;;
60169;SDS011;46042;49.444;6.862;2022-12-04T15:38:24;18.80;;;6.10;;
60169;SDS011;46042;49.444;6.862;2022-12-04T15:40:53;15.77;;;6.57;;
60169;SDS011;46042;49.444;6.862;2022-12-04T15:43:42;18.70;;;6.80;;
60169;SDS011;46042;49.444;6.862;2022-12-04T15:46:13;16.83;;;7.17;;
60169;SDS011;46042;49.444;6.862;2022-12-04T15:48:46;15.77;;;8.13;;
60169;SDS011;46042;49.444;6.862;2022-12-04T15:51:13;15.17;;;7.10;;
60169;SDS011;46042;49.444;6.862;2022-12-04T15:53:43;20.47;;;8.20;;
60169;SDS011;46042;49.444;6.862;2022-12-04T15:56:18;18.83;;;6.80;;
60169;SDS011;46042;49.444;6.862;2022-12-04T15:58:56;20.00;;;7.73;;
60169;SDS011;46042;49.444;6.862;2022-12-04T16:01:26;14.27;;;6.30;;
60169;SDS011;46042;49.444;6.862;2022-12-04T16:04:17;17.97;;;7.30;;
60169;SDS011;46042;49.444;6.862;2022-12-04T16:06:46;15.17;;;6.80;;
60169;SDS011;46042;49.444;6.862;2022-12-04T16:09:24;15.85;;;6.40;;
60169;SDS011;46042;49.444;6.862;2022-12-04T16:14:42;19.37;;;6.47;;
60169;SDS011;46042;49.444;6.862;2022-12-04T16:17:09;11.93;;;5.53;;
60169;SDS011;46042;49.444;6.862;2022-12-04T16:19:38;11.17;;;6.23;;
60169;SDS011;46042;49.444;6.862;2022-12-04T16:22:11;15.20;;;6.45;;
60169;SDS011;46042;49.444;6.862;2022-12-04T16:24:46;11.57;;;5.43;;
60169;SDS011;46042;49.444;6.862;2022-12-04T16:27:18;12.03;;;5.37;;
60169;SDS011;46042;49.444;6.862;2022-12-04T16:29:48;13.40;;;6.03;;
60169;SDS011;46042;49.444;6.862;2022-12-04T16:32:17;11.33;;;5.27;;
60169;SDS011;46042;49.444;6.862;2022-12-04T16:34:46;14.33;;;6.47;;
60169;SDS011;46042;49.444;6.862;2022-12-04T16:37:16;13.70;;;6.70;;
60169;SDS011;46042;49.444;6.862;2022-12-04T16:39:47;14.52;;;5.80;;
60169;SDS011;46042;49.444;6.862;2022-12-04T16:44:51;16.92;;;6.15;;
60169;SDS011;46042;49.444;6.862;2022-12-04T16:47:18;15.05;;;5.38;;
60169;SDS011;46042;49.444;6.862;2022-12-04T16:49:49;15.43;;;6.80;;
60169;SDS011;46042;49.444;6.862;2022-12-04T16:52:17;14.25;;;6.35;;
60169;SDS011;46042;49.444;6.862;2022-12-04T16:54:45;11.80;;;5.28;;
60169;SDS011;46042;49.444;6.862;2022-12-04T16:57:12;14.17;;;6.17;;
60169;SDS011;46042;49.444;6.862;2022-12-04T16:59:38;16.38;;;5.47;;
60169;SDS011;46042;49.444;6.862;2022-12-04T17:02:10;13.53;;;5.63;;
60169;SDS011;46042;49.444;6.862;2022-12-04T17:04:41;12.23;;;5.63;;
60169;SDS011;46042;49.444;6.862;2022-12-04T17:07:07;17.17;;;6.03;;
60169;SDS011;46042;49.444;6.862;2022-12-04T17:09:34;15.70;;;6.53;;
60169;SDS011;46042;49.444;6.862;2022-12-04T17:12:01;19.50;;;6.97;;
60169;SDS011;46042;49.444;6.862;2022-12-04T17:14:27;15.38;;;6.97;;
60169;SDS011;46042;49.444;6.862;2022-12-04T17:16:54;17.03;;;8.27;;
60169;SDS011;46042;49.444;6.862;2022-12-04T17:19:21;16.17;;;7.23;;
60169;SDS011;46042;49.444;6.862;2022-12-04T17:21:48;18.10;;;8.25;;
60169;SDS011;46042;49.444;6.862;2022-12-04T17:24:14;22.08;;;7.95;;
60169;SDS011;46042;49.444;6.862;2022-12-04T17:26:41;19.88;;;7.15;;